Time;durP1;ratioP1;P1;durP2;ratioP2;P2;SDS_P1;SDS_P2;PMS_P1;PMS_P2;Temp;Humidity;BMP_temperature;BMP_pressure;BME280_temperature;BME280_humidity;BME280_pressure;Samples;Min_cycle;Max_cycle;Signal;HPM_P1;HPM_P2
2021/05/02 03:02:12;;;;;;;15.60;7.93;;;;;;;14.25;100.00;100292.69;1798250;77;62731;-69
2021/05/02 03:04:41;;;;;;;19.07;8.97;;;;;;;15.42;100.00;100282.83;1835424;76;22018;-66
2021/05/02 03:07:10;;;;;;;19.73;9.33;;;;;;;16.18;100.00;100276.48;1789404;78;21630;-68
2021/05/02 03:09:40;;;;;;;26.37;11.70;;;;;;;16.76;100.00;100265.48;1838375;77;21132;-66
2021/05/02 03:12:11;;;;;;;27.73;13.87;;;;;;;17.30;100.00;100268.66;1818124;77;21194;-69
2021/05/02 03:14:40;;;;;;;49.98;20.57;;;;;;;17.66;100.00;100272.42;1834120;77;22089;-66
2021/05/02 03:17:09;;;;;;;85.77;30.40;;;;;;;17.90;100.00;100273.76;1817680;77;21106;-69
2021/05/02 03:19:40;;;;;;;63.73;24.87;;;;;;;18.21;100.00;100273.36;1808620;77;20979;-66
2021/05/02 03:22:37;;;;;;;50.03;22.30;;;;;;;18.67;100.00;100270.29;1818257;77;21455;-67
2021/05/02 03:25:10;;;;;;;36.70;17.67;;;;;;;19.25;100.00;100269.76;1825740;77;21587;-70
2021/05/02 03:27:45;;;;;;;29.67;14.23;;;;;;;20.09;100.00;100265.70;1816843;77;21053;-69
2021/05/02 03:30:15;;;;;;;30.13;14.20;;;;;;;20.89;100.00;100263.43;1816196;77;22419;-68
2021/05/02 03:32:49;;;;;;;23.70;12.47;;;;;;;21.64;100.00;100264.84;1808746;77;21160;-69
2021/05/02 03:35:18;;;;;;;21.60;12.13;;;;;;;22.32;91.40;100262.55;1812789;77;21088;-67
2021/05/02 03:37:57;;;;;;;21.83;12.83;;;;;;;23.12;81.83;100258.73;1823834;77;21124;-68
2021/05/02 03:40:25;;;;;;;21.37;12.57;;;;;;;23.83;73.50;100260.00;1787329;77;21201;-67
2021/05/02 03:42:54;;;;;;;22.43;13.13;;;;;;;24.59;64.46;100268.75;1822210;77;21680;-68
2021/05/02 03:45:23;;;;;;;16.97;11.93;;;;;;;25.14;56.23;100264.11;1821047;77;21807;-70
2021/05/02 03:47:52;;;;;;;17.98;11.22;;;;;;;25.51;52.97;100270.19;1823978;77;21501;-68
2021/05/02 03:50:21;;;;;;;15.65;10.13;;;;;;;25.87;49.84;100268.49;1818335;77;20860;-68
2021/05/02 03:52:49;;;;;;;15.70;10.90;;;;;;;26.04;47.46;100268.84;1819284;77;21168;-71
2021/05/02 03:55:17;;;;;;;17.77;12.30;;;;;;;26.24;46.46;100272.34;1816492;77;22383;-70
2021/05/02 03:57:45;;;;;;;23.12;12.40;;;;;;;26.54;44.60;100273.84;1815626;77;21545;-67
2021/05/02 04:00:16;;;;;;;16.48;11.70;;;;;;;26.79;43.38;100271.34;1828220;77;21571;-66
2021/05/02 04:02:44;;;;;;;15.50;11.43;;;;;;;26.97;42.17;100275.06;1817168;77;21547;-70
2021/05/02 04:05:13;;;;;;;14.87;11.75;;;;;;;27.29;41.04;100275.10;1788457;78;21372;-68
2021/05/02 04:07:41;;;;;;;18.55;12.33;;;;;;;27.75;38.74;100273.51;1802555;77;21200;-67
2021/05/02 04:10:11;;;;;;;15.85;11.50;;;;;;;28.36;37.51;100274.39;1801792;77;21106;-67
2021/05/02 04:12:39;;;;;;;16.15;12.80;;;;;;;28.93;36.52;100265.09;1837801;77;21128;-70
2021/05/02 04:15:09;;;;;;;20.82;12.78;;;;;;;29.44;34.85;100266.53;1838940;76;21078;-68
2021/05/02 04:17:37;;;;;;;16.77;12.35;;;;;;;29.81;33.62;100267.95;1838043;76;21260;-69
2021/05/02 04:20:07;;;;;;;16.70;12.03;;;;;;;30.23;32.87;100265.70;1834273;76;21600;-69
2021/05/02 04:22:35;;;;;;;21.02;12.93;;;;;;;30.46;32.03;100266.38;1836564;76;21109;-67
2021/05/02 04:25:26;;;;;;;15.05;11.80;;;;;;;30.68;31.73;100271.58;1838940;76;21102;-72
2021/05/02 04:27:55;;;;;;;22.60;13.32;;;;;;;31.08;30.93;100266.02;1808584;77;21125;-67
2021/05/02 04:30:24;;;;;;;18.00;12.90;;;;;;;31.42;30.29;100270.55;1794156;78;22287;-66
2021/05/02 04:32:52;;;;;;;13.48;10.58;;;;;;;31.63;29.56;100267.94;1826792;77;21175;-67
2021/05/02 04:35:20;;;;;;;18.15;11.95;;;;;;;31.96;28.80;100268.66;1831671;77;21513;-66
2021/05/02 04:37:49;;;;;;;15.72;10.08;;;;;;;32.03;28.28;100263.54;1787616;78;21216;-66
2021/05/02 04:40:18;;;;;;;14.20;9.98;;;;;;;32.26;27.94;100269.98;1786955;78;21133;-69
2021/05/02 04:42:46;;;;;;;14.87;9.43;;;;;;;32.58;27.11;100268.47;1787664;78;21360;-66
2021/05/02 04:45:14;;;;;;;16.70;10.95;;;;;;;32.73;26.88;100273.82;1788501;78;21203;-66
2021/05/02 04:47:42;;;;;;;15.53;10.65;;;;;;;33.05;26.65;100271.72;1781662;78;21489;-67
2021/05/02 04:50:11;;;;;;;12.00;8.10;;;;;;;33.41;26.04;100270.20;1784689;78;21191;-66
2021/05/02 04:52:40;;;;;;;8.80;6.10;;;;;;;33.59;25.33;100263.48;1755535;78;21203;-68
2021/05/02 04:55:10;;;;;;;10.10;7.70;;;;;;;33.26;25.13;100261.39;1787903;78;22132;-66
2021/05/02 04:57:37;;;;;;;14.25;9.00;;;;;;;32.97;26.05;100261.80;1785702;78;21195;-66
2021/05/02 05:00:09;;;;;;;9.18;6.47;;;;;;;32.78;26.65;100259.58;1786904;78;21061;-65
2021/05/02 05:02:37;;;;;;;8.53;6.33;;;;;;;32.53;26.52;100261.94;1785553;78;21151;-68
2021/05/02 05:05:06;;;;;;;9.08;6.08;;;;;;;32.22;26.43;100261.19;1789306;78;22476;-66
2021/05/02 05:07:37;;;;;;;11.40;7.22;;;;;;;31.85;26.99;100260.68;1783633;78;21331;-66
2021/05/02 05:10:06;;;;;;;10.13;6.58;;;;;;;31.56;27.36;100260.09;1782181;78;21516;-65
2021/05/02 05:12:37;;;;;;;12.77;6.87;;;;;;;31.41;27.80;100264.14;1778122;78;21032;-68
2021/05/02 05:15:07;;;;;;;9.90;7.20;;;;;;;31.65;27.55;100265.70;1783232;79;21640;-66
2021/05/02 05:17:35;;;;;;;9.37;8.17;;;;;;;31.68;27.40;100264.27;1783879;78;21550;-66
2021/05/02 05:20:05;;;;;;;10.28;7.83;;;;;;;31.78;27.63;100263.09;1782238;78;22291;-65
2021/05/02 05:22:33;;;;;;;11.68;8.20;;;;;;;32.31;27.11;100264.37;1788979;78;21144;-67
2021/05/02 05:25:01;;;;;;;10.05;7.15;;;;;;;32.60;26.86;100265.68;1829818;77;21701;-66
2021/05/02 05:27:30;;;;;;;9.63;7.20;;;;;;;32.96;26.56;100264.81;1823485;77;21180;-66
2021/05/02 05:29:58;;;;;;;7.45;5.53;;;;;;;33.07;26.02;100264.09;1824131;77;21106;-66
2021/05/02 05:32:27;;;;;;;8.58;6.33;;;;;;;33.09;25.90;100266.44;1816731;77;21507;-67
2021/05/02 05:34:55;;;;;;;10.30;7.20;;;;;;;33.33;25.77;100265.69;1799071;77;21514;-67
2021/05/02 05:37:24;;;;;;;11.40;7.83;;;;;;;33.52;25.69;100260.55;1825836;77;21121;-66
2021/05/02 05:39:52;;;;;;;10.18;7.10;;;;;;;33.53;25.67;100258.09;1818536;77;21058;-66
2021/05/02 05:42:21;;;;;;;9.10;7.58;;;;;;;33.21;26.01;100265.11;1806003;79;21105;-68
2021/05/02 05:44:49;;;;;;;14.43;7.70;;;;;;;33.06;26.46;100268.45;1805706;79;21586;-67
2021/05/02 05:47:18;;;;;;;12.47;5.85;;;;;;;33.16;26.59;100266.69;1805496;79;21478;-66
2021/05/02 05:49:46;;;;;;;8.18;5.85;;;;;;;33.25;25.98;100270.06;1806552;79;21468;-66
2021/05/02 05:52:14;;;;;;;10.95;6.20;;;;;;;33.27;25.79;100273.80;1801407;77;21069;-67
2021/05/02 05:54:44;;;;;;;10.05;5.97;;;;;;;33.38;25.34;100273.02;1806138;77;21143;-68
2021/05/02 05:57:13;;;;;;;7.85;6.47;;;;;;;33.32;25.70;100275.70;1805660;77;21683;-68
2021/05/02 05:59:42;;;;;;;11.25;6.37;;;;;;;33.38;25.67;100275.73;1803903;78;21580;-67
2021/05/02 06:02:10;;;;;;;9.28;6.37;;;;;;;33.07;26.07;100272.19;1820907;77;21069;-67
2021/05/02 06:04:38;;;;;;;10.63;6.40;;;;;;;33.06;26.45;100276.55;1822984;77;21180;-68
2021/05/02 06:07:07;;;;;;;9.68;7.33;;;;;;;33.50;26.00;100272.84;1803165;77;21615;-69
2021/05/02 06:09:36;;;;;;;8.38;6.87;;;;;;;33.98;25.64;100269.37;1825519;77;21183;-68
2021/05/02 06:12:07;;;;;;;12.75;8.35;;;;;;;34.43;25.39;100270.26;1805046;77;28326;-65
2021/05/02 06:14:35;;;;;;;10.58;8.63;;;;;;;34.86;24.89;100276.33;1805642;77;21141;-68
2021/05/02 06:17:04;;;;;;;10.60;6.67;;;;;;;35.27;24.58;100275.64;1798825;77;21634;-66
2021/05/02 06:19:33;;;;;;;6.97;6.15;;;;;;;35.60;23.98;100266.41;1804291;79;21643;-66
2021/05/02 06:22:01;;;;;;;9.60;5.65;;;;;;;35.83;23.63;100266.75;1821968;77;21174;-66
2021/05/02 06:24:30;;;;;;;8.18;6.53;;;;;;;36.05;23.61;100264.55;1816592;77;21169;-67
2021/05/02 06:26:59;;;;;;;15.43;11.68;;;;;;;36.27;23.53;100265.78;1824501;77;21447;-66
2021/05/02 06:29:28;;;;;;;14.60;13.10;;;;;;;36.16;23.03;100271.56;1824848;77;21006;-66
2021/05/02 06:31:56;;;;;;;8.30;5.75;;;;;;;35.82;23.60;100268.47;1823930;77;21391;-66
2021/05/02 06:34:24;;;;;;;9.43;6.03;;;;;;;35.77;24.03;100268.75;1803052;79;21370;-67
2021/05/02 06:36:58;;;;;;;8.08;5.45;;;;;;;35.98;23.60;100269.78;1804305;79;21184;-65
2021/05/02 06:39:24;;;;;;;7.78;5.87;;;;;;;36.15;23.26;100262.63;1806513;79;21109;-65
2021/05/02 06:41:52;;;;;;;8.25;5.37;;;;;;;36.24;23.45;100265.13;1820454;77;21121;-66
2021/05/02 06:44:21;;;;;;;9.45;6.20;;;;;;;36.22;22.84;100262.79;1820234;77;21181;-66
2021/05/02 06:46:50;;;;;;;8.95;6.37;;;;;;;36.11;23.12;100263.70;1799438;79;21335;-67
2021/05/02 06:49:19;;;;;;;9.60;6.83;;;;;;;36.06;23.21;100263.39;1821091;77;21128;-68
2021/05/02 06:51:47;;;;;;;11.70;8.60;;;;;;;36.02;23.47;100264.67;1822337;77;21006;-67
2021/05/02 06:54:16;;;;;;;11.43;7.00;;;;;;;36.15;23.61;100266.70;1817709;77;22380;-67
2021/05/02 06:56:44;;;;;;;11.08;6.17;;;;;;;36.22;22.94;100253.29;1820907;77;21451;-66
2021/05/02 06:59:12;;;;;;;9.23;6.20;;;;;;;36.16;22.69;100254.70;1805062;79;22071;-66
2021/05/02 07:01:41;;;;;;;12.73;5.22;;;;;;;35.67;22.98;100253.80;1822194;77;21195;-64
2021/05/02 07:04:10;;;;;;;9.75;5.45;;;;;;;35.43;22.98;100253.98;1816667;77;21181;-67
2021/05/02 07:06:39;;;;;;;11.40;6.10;;;;;;;35.27;23.18;100246.64;1801507;79;21194;-66
2021/05/02 07:09:08;;;;;;;10.15;7.20;;;;;;;35.18;23.40;100242.52;1812353;77;21093;-68
2021/05/02 07:11:37;;;;;;;7.37;5.20;;;;;;;34.99;23.13;100243.18;1817306;77;21225;-66
2021/05/02 07:14:06;;;;;;;9.65;8.23;;;;;;;34.78;23.58;100240.72;1802440;77;21393;-68
2021/05/02 07:16:34;;;;;;;6.25;3.98;;;;;;;34.92;23.52;100229.45;1815088;77;21499;-65
2021/05/02 07:19:04;;;;;;;8.28;4.50;;;;;;;35.01;23.10;100232.83;1822028;77;21094;-66
2021/05/02 07:21:32;;;;;;;9.20;4.78;;;;;;;34.96;22.52;100226.27;1825086;77;21085;-67
2021/05/02 07:24:01;;;;;;;9.05;5.95;;;;;;;34.85;23.15;100231.40;1818903;77;21413;-68
2021/05/02 07:26:29;;;;;;;5.15;3.77;;;;;;;34.65;23.41;100227.00;1820034;77;21397;-66
2021/05/02 07:28:58;;;;;;;4.12;2.80;;;;;;;34.41;23.04;100228.66;1817718;77;21169;-65
2021/05/02 07:31:26;;;;;;;4.03;2.60;;;;;;;34.20;23.46;100218.58;1817613;78;21521;-65
2021/05/02 07:33:54;;;;;;;5.72;4.85;;;;;;;34.26;23.59;100219.36;1803965;77;21130;-67
2021/05/02 07:36:23;;;;;;;5.83;3.60;;;;;;;34.34;23.33;100216.28;1801370;78;21473;-68
2021/05/02 07:38:51;;;;;;;4.75;3.20;;;;;;;34.15;23.72;100216.91;1819879;77;22522;-67
2021/05/02 07:41:20;;;;;;;8.43;6.00;;;;;;;34.11;23.71;100212.75;1797745;77;21136;-67
2021/05/02 07:43:48;;;;;;;6.10;4.35;;;;;;;34.19;24.00;100207.55;1804144;79;21116;-67
2021/05/02 07:46:16;;;;;;;6.33;5.10;;;;;;;34.01;23.95;100196.20;1818351;77;21093;-67
2021/05/02 07:48:44;;;;;;;6.17;4.20;;;;;;;33.86;24.62;100198.45;1820185;78;22276;-66
2021/05/02 07:51:13;;;;;;;4.75;3.10;;;;;;;33.99;24.19;100201.97;1805412;77;21117;-66
2021/05/02 07:53:41;;;;;;;4.70;3.00;;;;;;;34.04;24.08;100194.95;1806961;78;21172;-66
2021/05/02 07:56:08;;;;;;;4.80;3.67;;;;;;;34.36;23.87;100191.00;1800391;79;21192;-63
2021/05/02 07:58:37;;;;;;;5.30;3.65;;;;;;;34.53;24.31;100192.09;1816563;77;21521;-65
2021/05/02 08:01:05;;;;;;;5.45;3.30;;;;;;;34.61;23.93;100191.14;1804691;77;21120;-66
2021/05/02 08:03:35;;;;;;;4.25;3.35;;;;;;;34.75;23.68;100188.60;1816826;77;21078;-67
2021/05/02 08:06:04;;;;;;;8.50;6.60;;;;;;;34.88;23.69;100183.31;1770939;79;21184;-66
2021/05/02 08:08:33;;;;;;;8.53;4.53;;;;;;;35.01;23.47;100183.50;1775436;79;21624;-65
2021/05/02 08:11:01;;;;;;;5.08;3.62;;;;;;;35.00;23.47;100167.00;1776583;79;21161;-65
2021/05/02 08:13:30;;;;;;;7.90;6.40;;;;;;;35.19;23.74;100167.64;1775021;79;21237;-66
2021/05/02 08:15:58;;;;;;;5.22;3.58;;;;;;;35.48;23.39;100168.31;1766697;79;21248;-66
2021/05/02 08:18:44;;;;;;;4.67;4.15;;;;;;;35.29;23.04;100165.77;1773210;78;21571;-67
2021/05/02 08:21:12;;;;;;;5.15;4.58;;;;;;;35.07;23.09;100160.98;1757803;79;63091;-71
2021/05/02 08:23:40;;;;;;;5.70;3.60;;;;;;;34.70;23.52;100164.47;1741816;80;21478;-69
2021/05/02 08:26:09;;;;;;;3.70;3.08;;;;;;;34.34;23.92;100172.42;1734603;80;22188;-69
2021/05/02 08:28:38;;;;;;;5.97;3.80;;;;;;;34.13;24.45;100157.75;1731210;80;21507;-71
2021/05/02 08:31:08;;;;;;;8.33;3.10;;;;;;;34.07;24.14;100162.39;1737345;80;28319;-72
2021/05/02 08:33:37;;;;;;;7.80;3.20;;;;;;;34.12;24.16;100156.72;1739439;80;22495;-69
2021/05/02 08:36:06;;;;;;;8.18;5.90;;;;;;;34.40;24.79;100160.79;1738586;80;21062;-71
2021/05/02 08:38:35;;;;;;;5.28;4.30;;;;;;;34.64;24.15;100154.48;1718721;80;21900;-69
2021/05/02 08:41:04;;;;;;;4.65;3.87;;;;;;;34.52;24.52;100151.84;1708300;82;21197;-71
2021/05/02 08:43:34;;;;;;;4.92;3.60;;;;;;;34.54;24.54;100146.29;1709955;82;21001;-67
2021/05/02 08:46:03;;;;;;;5.00;3.12;;;;;;;34.67;24.21;100147.59;1675811;83;21244;-69
2021/05/02 08:48:32;;;;;;;4.15;3.20;;;;;;;34.61;24.29;100145.69;1707362;82;21212;-70
2021/05/02 08:51:01;;;;;;;5.35;3.60;;;;;;;34.57;24.61;100147.52;1676409;83;21385;-70
2021/05/02 08:53:30;;;;;;;4.92;3.45;;;;;;;34.32;24.62;100144.12;1705187;82;21571;-69
2021/05/02 08:56:00;;;;;;;4.80;3.55;;;;;;;33.96;25.02;100139.06;1677369;83;21579;-67
2021/05/02 08:58:30;;;;;;;5.55;3.85;;;;;;;33.87;25.58;100142.48;1675208;83;21157;-69
2021/05/02 09:01:00;;;;;;;4.03;3.22;;;;;;;33.85;25.30;100140.11;1677331;83;21563;-69
2021/05/02 09:03:47;;;;;;;4.40;3.63;;;;;;;33.61;25.56;100129.36;1707945;82;21343;-68
2021/05/02 09:06:28;;;;;;;7.05;4.30;;;;;;;33.61;25.70;100129.36;1677598;83;21948;-69
2021/05/02 09:09:04;;;;;;;5.60;3.52;;;;;;;33.39;24.94;100127.33;1703704;82;21160;-69
2021/05/02 09:11:45;;;;;;;4.55;3.37;;;;;;;33.32;24.73;100119.57;1673975;84;21157;-67
2021/05/02 09:14:24;;;;;;;5.05;3.70;;;;;;;33.30;24.64;100115.05;1705854;82;21125;-67
2021/05/02 09:17:11;;;;;;;8.88;4.17;;;;;;;32.97;25.22;100112.50;1679916;83;22131;-70
2021/05/02 09:19:35;;;;;;;4.85;3.52;;;;;;;32.59;25.76;100112.98;1703469;82;21215;-68
2021/05/02 09:22:12;;;;;;;5.55;4.05;;;;;;;32.44;26.28;100108.23;1659778;83;21616;-69
2021/05/02 09:24:42;;;;;;;5.95;4.08;;;;;;;32.64;25.97;100111.41;1670437;83;21252;-68
2021/05/02 09:27:15;;;;;;;10.40;4.85;;;;;;;32.60;26.03;100109.72;1702810;82;21527;-72
2021/05/02 09:29:45;;;;;;;4.30;3.83;;;;;;;32.44;25.86;100106.88;1705911;82;21153;-70
2021/05/02 09:32:15;;;;;;;8.90;6.00;;;;;;;32.12;25.87;100108.41;1697779;82;21160;-73
2021/05/02 09:34:52;;;;;;;5.20;4.08;;;;;;;31.91;26.65;100105.75;1702893;82;22198;-69
2021/05/02 09:37:23;;;;;;;4.62;4.03;;;;;;;31.78;26.80;100104.86;1705080;82;21544;-69
2021/05/02 09:39:56;;;;;;;5.78;3.90;;;;;;;31.60;26.43;100098.83;1682021;83;21137;-71
2021/05/02 09:42:34;;;;;;;5.75;4.22;;;;;;;31.31;26.54;100111.76;1704088;82;21567;-70
2021/05/02 09:45:10;;;;;;;4.67;3.67;;;;;;;30.73;27.58;100114.02;1700198;82;21172;-69
2021/05/02 09:47:44;;;;;;;4.25;3.67;;;;;;;30.48;27.63;100108.14;1712522;82;21158;-72
2021/05/02 09:53:03;;;;;;;5.77;4.33;;;;;;;30.25;28.28;100115.05;1870952;75;22609;-67
2021/05/02 09:55:45;;;;;;;5.83;4.40;;;;;;;30.04;28.83;100113.55;1801264;78;21605;-67
2021/05/02 09:58:19;;;;;;;7.20;4.97;;;;;;;30.00;28.84;100117.17;1771340;80;21369;-66
2021/05/02 10:00:55;;;;;;;10.45;4.75;;;;;;;30.03;29.28;100109.82;1814772;78;21148;-66
2021/05/02 10:03:25;;;;;;;7.60;4.50;;;;;;;30.06;29.15;100112.66;1765328;80;21084;-67
2021/05/02 10:06:00;;;;;;;7.83;5.10;;;;;;;29.86;29.48;100111.97;1805174;78;21014;-66
2021/05/02 10:08:31;;;;;;;8.05;5.12;;;;;;;29.54;29.95;100102.41;1799687;78;21053;-67
2021/05/02 10:11:03;;;;;;;7.67;5.75;;;;;;;29.21;30.65;100096.63;1773928;80;21261;-66
2021/05/02 10:13:34;;;;;;;8.45;6.15;;;;;;;28.97;31.10;100095.66;1804632;78;21599;-67
2021/05/02 10:16:04;;;;;;;8.03;6.13;;;;;;;28.72;31.31;100097.94;1799336;78;21049;-66
2021/05/02 10:18:33;;;;;;;10.08;6.15;;;;;;;28.41;32.23;100097.89;1814781;78;20970;-65
2021/05/02 10:21:02;;;;;;;9.38;5.92;;;;;;;28.17;32.78;100098.18;1770971;80;21208;-67
2021/05/02 10:23:30;;;;;;;9.20;6.10;;;;;;;27.98;32.64;100101.58;1812727;78;22662;-66
2021/05/02 10:26:01;;;;;;;26.63;24.03;;;;;;;27.69;33.02;100094.67;1773534;80;21003;-69
2021/05/02 10:28:31;;;;;;;14.23;7.00;;;;;;;27.50;33.66;100088.11;1779960;79;21563;-67
2021/05/02 10:31:05;;;;;;;13.48;7.45;;;;;;;27.26;34.56;100084.87;1802944;78;21990;-67
2021/05/02 10:33:38;;;;;;;8.33;5.20;;;;;;;27.10;35.22;100081.69;1782298;78;21014;-67
2021/05/02 10:36:09;;;;;;;13.40;9.37;;;;;;;27.02;35.29;100074.35;1769063;80;21424;-69
2021/05/02 10:38:54;;;;;;;9.97;5.60;;;;;;;26.97;35.56;100075.77;1777060;80;20993;-68
2021/05/02 10:41:36;;;;;;;8.93;4.77;;;;;;;26.87;35.29;100065.52;1782904;79;21244;-67
2021/05/02 10:44:16;;;;;;;8.90;4.47;;;;;;;26.74;35.82;100068.17;1796823;78;21661;-68
2021/05/02 10:46:52;;;;;;;7.43;4.53;;;;;;;26.69;36.31;100062.38;1777866;79;21177;-65
2021/05/02 10:49:26;;;;;;;10.13;5.07;;;;;;;26.95;36.29;100057.90;1805871;78;21337;-66
2021/05/02 10:51:57;;;;;;;7.80;5.03;;;;;;;27.25;35.83;100057.33;1806481;78;21369;-66
2021/05/02 10:54:42;;;;;;;8.73;5.07;;;;;;;27.48;36.19;100058.19;1796250;78;21116;-68
2021/05/02 10:57:34;;;;;;;7.23;4.60;;;;;;;27.93;34.89;100061.52;1771875;79;20972;-68
2021/05/02 11:00:11;;;;;;;9.13;7.28;;;;;;;28.34;34.03;100053.30;1778689;79;21152;-67
2021/05/02 11:02:47;;;;;;;8.07;6.00;;;;;;;28.56;33.32;100051.95;1783607;78;21378;-68
2021/05/02 11:05:18;;;;;;;10.00;5.40;;;;;;;28.68;33.48;100046.53;1767737;80;21395;-68
2021/05/02 11:07:48;;;;;;;9.77;5.33;;;;;;;29.00;32.92;100041.41;1777390;79;21121;-67
2021/05/02 11:10:17;;;;;;;7.87;5.30;;;;;;;29.37;32.12;100041.41;1801180;78;21128;-68
2021/05/02 11:12:47;;;;;;;9.30;6.30;;;;;;;29.66;32.04;100039.47;1797778;78;22043;-66
2021/05/02 11:15:32;;;;;;;7.83;5.87;;;;;;;29.78;31.45;100030.25;1786266;80;21355;-68
2021/05/02 11:18:01;;;;;;;7.42;4.65;;;;;;;29.74;31.49;100023.94;1775696;79;20947;-68
2021/05/02 11:20:50;;;;;;;8.10;5.20;;;;;;;29.68;31.05;100021.16;1773543;78;21057;-68
2021/05/02 11:23:40;;;;;;;7.42;5.60;;;;;;;29.79;31.36;100018.95;1781169;79;22266;-67
2021/05/02 11:26:11;;;;;;;8.90;5.90;;;;;;;30.05;31.15;100010.85;1786007;79;22093;-68
2021/05/02 11:28:46;;;;;;;31.35;28.50;;;;;;;30.30;29.73;100010.57;1774430;78;21157;-68
2021/05/02 11:31:13;;;;;;;13.05;11.03;;;;;;;30.37;29.46;100007.39;1758080;80;21127;-69
2021/05/02 11:33:41;;;;;;;12.78;10.08;;;;;;;30.41;29.75;100004.29;1754380;79;21119;-67
2021/05/02 11:36:33;;;;;;;13.50;10.23;;;;;;;30.35;30.10;99997.53;1782461;78;21319;-68
2021/05/02 11:39:02;;;;;;;10.08;7.10;;;;;;;30.43;29.84;99996.70;1779307;80;21232;-68
2021/05/02 11:41:32;;;;;;;12.28;6.35;;;;;;;30.61;29.66;99995.52;1769702;79;22630;-67
2021/05/02 11:44:00;;;;;;;7.25;4.95;;;;;;;30.83;29.36;99986.96;1728136;78;21165;-67
2021/05/02 11:46:29;;;;;;;10.65;5.10;;;;;;;30.90;28.91;99984.55;1724058;79;21100;-68
2021/05/02 11:48:58;;;;;;;10.18;6.55;;;;;;;30.68;29.41;99980.20;1780673;78;21668;-67
2021/05/02 11:51:29;;;;;;;8.57;5.20;;;;;;;30.49;29.38;99977.91;1794780;78;21133;-67
2021/05/02 11:53:58;;;;;;;7.15;5.12;;;;;;;30.30;30.07;99973.71;1776633;79;22460;-67
2021/05/02 11:56:33;;;;;;;8.20;4.85;;;;;;;30.29;30.20;99966.76;1804686;78;21101;-69
2021/05/02 11:59:09;;;;;;;8.53;4.60;;;;;;;30.37;29.85;99964.36;1794292;78;21466;-67
2021/05/02 12:01:40;;;;;;;9.15;4.20;;;;;;;30.37;29.11;99963.02;1793890;78;21065;-67
2021/05/02 12:04:17;;;;;;;6.05;4.12;;;;;;;30.09;29.55;99954.00;1767464;80;21160;-67
2021/05/02 12:06:46;;;;;;;9.30;4.35;;;;;;;29.83;30.00;99966.70;1777157;79;22400;-68
2021/05/02 12:09:19;;;;;;;8.37;4.83;;;;;;;29.53;31.00;99954.45;1789342;78;21495;-66
2021/05/02 12:11:57;;;;;;;10.72;5.12;;;;;;;29.48;31.41;99962.69;1771395;79;21078;-67
2021/05/02 12:14:28;;;;;;;10.43;6.20;;;;;;;29.50;31.30;99947.03;1773865;80;21196;-67
2021/05/02 12:16:59;;;;;;;12.45;5.35;;;;;;;29.61;31.49;99935.44;1787978;79;21545;-67
2021/05/02 12:19:35;;;;;;;11.88;5.25;;;;;;;29.85;30.71;99945.66;1784976;79;22314;-67
2021/05/02 12:22:05;;;;;;;7.50;4.55;;;;;;;29.97;30.77;99937.76;1788501;79;21074;-69
2021/05/02 12:24:33;;;;;;;7.05;4.33;;;;;;;30.10;30.01;99944.81;1782646;79;21648;-67
2021/05/02 12:27:07;;;;;;;11.80;4.97;;;;;;;30.20;29.54;99936.44;1784717;78;20979;-67
2021/05/02 12:29:39;;;;;;;7.00;4.60;;;;;;;30.12;29.30;99946.64;1773560;79;20928;-69
2021/05/02 12:32:09;;;;;;;8.65;5.37;;;;;;;29.75;28.89;99947.59;1782080;79;21215;-68
2021/05/02 12:34:40;;;;;;;;;;;;;;;29.48;29.61;99951.39;1756509;80;21218;-66
2021/05/02 12:37:14;;;;;;;7.30;5.15;;;;;;;29.44;29.77;99951.00;1778641;80;20512;-68
2021/05/02 12:39:43;;;;;;;16.65;7.60;;;;;;;29.39;30.05;99941.73;1775940;79;21227;-70
2021/05/02 12:42:11;;;;;;;15.48;11.65;;;;;;;29.26;30.55;99946.95;1776546;79;21535;-67
2021/05/02 12:44:41;;;;;;;18.57;15.05;;;;;;;29.04;31.27;99942.52;1778391;80;21349;-67
2021/05/02 12:47:18;;;;;;;13.28;9.98;;;;;;;28.77;31.75;99942.20;1774985;79;21109;-69
2021/05/02 12:49:56;;;;;;;8.65;5.83;;;;;;;28.52;32.62;99937.55;1777708;79;21057;-69
2021/05/02 12:52:44;;;;;;;8.97;4.93;;;;;;;28.19;33.10;99937.88;1808460;78;21003;-67
2021/05/02 12:55:26;;;;;;;7.00;4.83;;;;;;;27.80;33.83;99934.02;1767652;80;21496;-70
2021/05/02 12:58:02;;;;;;;13.83;6.57;;;;;;;27.55;34.59;99934.07;1797397;78;21253;-68
2021/05/02 13:00:43;;;;;;;22.67;20.27;;;;;;;27.39;35.25;99932.30;1773339;78;21141;-67
2021/05/02 13:03:26;;;;;;;22.67;19.93;;;;;;;27.28;35.79;99934.17;1809106;78;21030;-67
2021/05/02 13:06:16;;;;;;;9.27;5.80;;;;;;;27.15;36.29;99933.09;1767232;79;21745;-67
2021/05/02 13:08:58;;;;;;;13.00;6.13;;;;;;;27.01;36.60;99925.09;1778101;80;21758;-66
2021/05/02 13:11:33;;;;;;;7.40;5.73;;;;;;;26.86;37.10;99928.88;1770617;80;21521;-67
2021/05/02 13:14:25;;;;;;;12.13;5.97;;;;;;;26.75;37.15;99933.41;1784609;78;21200;-68
2021/05/02 13:16:55;;;;;;;7.47;5.33;;;;;;;26.70;37.23;99920.91;1775622;79;21583;-70
2021/05/02 13:19:32;;;;;;;8.05;5.22;;;;;;;26.71;36.42;99927.04;1800222;78;20982;-68
2021/05/02 13:22:22;;;;;;;7.13;4.47;;;;;;;26.67;36.65;99930.88;1799138;78;21139;-69
2021/05/02 13:25:08;;;;;;;6.97;4.50;;;;;;;26.63;36.58;99935.22;1803286;78;21403;-67
2021/05/02 13:27:46;;;;;;;10.33;5.50;;;;;;;26.63;37.42;99928.53;1790634;78;21149;-67
2021/05/02 13:30:35;;;;;;;7.47;4.80;;;;;;;26.64;37.56;99924.24;1788435;78;21041;-67
2021/05/02 13:33:15;;;;;;;8.60;5.73;;;;;;;26.63;37.94;99925.34;1796322;78;21181;-68
2021/05/02 13:35:47;;;;;;;7.73;5.40;;;;;;;26.58;38.66;99921.41;1788217;78;21168;-67
2021/05/02 13:38:17;;;;;;;5.60;4.10;;;;;;;26.64;39.85;99925.58;1801590;78;21940;-67
2021/05/02 13:40:46;;;;;;;6.55;4.17;;;;;;;26.76;39.63;99925.07;1807288;78;21159;-66
2021/05/02 13:43:15;;;;;;;6.70;4.20;;;;;;;26.84;39.72;99923.02;1798655;79;21026;-67
2021/05/02 13:45:44;;;;;;;6.93;4.47;;;;;;;26.88;40.19;99917.87;1793599;78;21006;-67
2021/05/02 13:48:13;;;;;;;5.37;4.03;;;;;;;26.92;39.95;99910.83;1766771;80;21240;-67
2021/05/02 13:50:42;;;;;;;9.63;4.97;;;;;;;26.84;40.27;99909.66;1779278;79;21365;-68
2021/05/02 13:53:11;;;;;;;7.97;4.60;;;;;;;26.77;40.81;99913.28;1773584;79;21605;-67
2021/05/02 13:55:39;;;;;;;8.37;4.77;;;;;;;26.75;40.02;99908.79;1766036;80;21072;-67
2021/05/02 13:58:08;;;;;;;9.23;4.83;;;;;;;26.67;40.58;99904.15;1766522;81;21232;-67
2021/05/02 14:00:38;;;;;;;7.73;4.37;;;;;;;26.60;40.97;99905.09;1752816;80;21138;-68
2021/05/02 14:03:06;;;;;;;6.10;4.27;;;;;;;26.48;41.57;99912.27;1757719;80;21695;-67
2021/05/02 14:05:37;;;;;;;7.53;4.27;;;;;;;26.40;42.34;99911.05;1753316;80;21530;-68
2021/05/02 14:08:05;;;;;;;;;;;;;;;26.39;41.88;99908.11;1752064;80;21917;-68
2021/05/02 14:10:34;;;;;;;6.33;4.27;;;;;;;26.39;42.29;99907.33;1758446;81;20299;-69
2021/05/02 14:13:02;;;;;;;15.37;5.40;;;;;;;26.32;42.01;99897.02;1757063;80;21382;-67
2021/05/02 14:15:32;;;;;;;5.78;3.77;;;;;;;26.25;42.45;99897.95;1759728;80;21070;-66
2021/05/02 14:18:00;;;;;;;9.53;4.00;;;;;;;26.16;43.07;99892.52;1758844;81;22022;-67
2021/05/02 14:20:29;;;;;;;5.60;3.80;;;;;;;26.09;44.02;99892.66;1755979;80;21136;-68
2021/05/02 14:22:57;;;;;;;5.13;3.60;;;;;;;26.05;44.14;99895.67;1749798;81;21240;-68
2021/05/02 14:25:25;;;;;;;6.93;3.77;;;;;;;25.97;44.65;99894.47;1756594;80;21150;-67
2021/05/02 14:27:53;;;;;;;7.37;3.00;;;;;;;25.85;45.60;99886.93;1747973;80;21194;-66
2021/05/02 14:30:24;;;;;;;6.57;3.00;;;;;;;25.72;45.82;99891.65;1742907;80;21234;-67
2021/05/02 14:32:52;;;;;;;7.67;3.30;;;;;;;25.54;46.65;99893.30;1737160;81;21136;-67
2021/05/02 14:35:21;;;;;;;5.00;3.33;;;;;;;25.36;47.88;99900.77;1760851;80;21482;-68
2021/05/02 14:37:49;;;;;;;4.73;3.47;;;;;;;25.22;48.52;99889.48;1760327;81;21176;-68
2021/05/02 14:40:17;;;;;;;5.63;3.63;;;;;;;25.10;48.92;99889.68;1761635;81;21261;-67
2021/05/02 14:42:45;;;;;;;8.90;3.63;;;;;;;25.00;50.45;99887.91;1754471;80;21162;-70
2021/05/02 14:45:16;;;;;;;8.40;4.20;;;;;;;24.96;51.10;99885.05;1784737;80;21633;-68
2021/05/02 14:47:44;;;;;;;6.83;4.67;;;;;;;24.96;51.46;99887.71;1788026;79;21183;-67